createdAt,value
2022-08-26T00:01:04.411Z,4.60
2022-08-26T00:03:32.612Z,4.80
2022-08-26T00:06:00.832Z,4.70
2022-08-26T00:08:29.376Z,4.70
2022-08-26T00:10:57.870Z,4.70
2022-08-26T00:13:29.307Z,5.30
2022-08-26T00:15:58.045Z,5.60
2022-08-26T00:18:27.097Z,5.10
2022-08-26T00:20:57.019Z,4.70
2022-08-26T00:23:25.766Z,4.80
2022-08-26T00:25:57.839Z,5.40
2022-08-26T00:28:27.114Z,4.30
2022-08-26T00:30:55.438Z,4.40
2022-08-26T00:33:24.182Z,4.10
2022-08-26T00:35:52.401Z,4.40
2022-08-26T00:38:22.251Z,5.10
2022-08-26T00:40:55.680Z,4.70
2022-08-26T00:43:26.526Z,4.50
2022-08-26T00:46:31.684Z,4.90
2022-08-26T00:49:11.828Z,4.60
2022-08-26T00:51:51.379Z,4.50
2022-08-26T00:54:26.927Z,4.50
2022-08-26T00:57:08.761Z,4.50
2022-08-26T00:59:49.353Z,4.20
2022-08-26T01:02:20.753Z,4.20
2022-08-26T01:04:59.085Z,4.50
2022-08-26T01:07:31.339Z,4.10
2022-08-26T01:10:03.104Z,4.60
2022-08-26T01:12:40.161Z,4.80
2022-08-26T01:15:14.221Z,3.80
2022-08-26T01:17:42.620Z,4.10
2022-08-26T01:20:30.420Z,3.90
2022-08-26T01:23:05.344Z,4.40
2022-08-26T01:25:39.512Z,4.70
2022-08-26T01:28:14.340Z,4.60
2022-08-26T01:30:45.172Z,4.40
2022-08-26T01:33:19.299Z,4.40
2022-08-26T01:35:48.160Z,4.20
2022-08-26T01:38:18.376Z,4.20
2022-08-26T01:40:47.140Z,4.80
2022-08-26T01:43:21.533Z,4.40
2022-08-26T01:45:51.849Z,5.50
2022-08-26T01:48:25.582Z,4.90
2022-08-26T01:50:54.335Z,5.20
2022-08-26T01:53:24.544Z,6.30
2022-08-26T01:56:02.888Z,5.10
2022-08-26T01:58:47.218Z,4.40
2022-08-26T02:01:16.440Z,5.20
2022-08-26T02:04:08.287Z,4.60
2022-08-26T02:06:38.959Z,4.70
2022-08-26T02:09:08.952Z,5.50
2022-08-26T02:11:38.374Z,4.90
2022-08-26T02:14:17.149Z,5.10
2022-08-26T02:16:50.447Z,4.60
2022-08-26T02:19:29.495Z,5.40
2022-08-26T02:22:03.300Z,4.70
2022-08-26T02:24:57.996Z,4.80
2022-08-26T02:27:33.918Z,5.00
2022-08-26T02:30:17.114Z,5.60
2022-08-26T02:32:46.503Z,4.70
2022-08-26T02:35:20.551Z,4.80
2022-08-26T02:37:51.017Z,4.40
2022-08-26T02:40:28.276Z,5.00
2022-08-26T02:42:57.552Z,5.20
2022-08-26T02:45:28.597Z,4.50
2022-08-26T02:47:58.600Z,4.80
2022-08-26T02:50:28.948Z,4.80
2022-08-26T02:52:57.139Z,4.90
2022-08-26T02:55:26.393Z,5.50
2022-08-26T02:57:54.645Z,5.60
2022-08-26T03:00:23.829Z,4.60
2022-08-26T03:02:52.129Z,4.10
2022-08-26T03:05:22.156Z,4.80
2022-08-26T03:07:53.009Z,5.10
2022-08-26T03:10:22.605Z,5.10
2022-08-26T03:12:50.846Z,4.40
2022-08-26T03:15:20.920Z,4.50
2022-08-26T03:17:50.363Z,4.90
2022-08-26T03:20:19.024Z,5.30
2022-08-26T03:22:47.868Z,5.30
2022-08-26T03:25:18.313Z,6.20
2022-08-26T03:27:46.851Z,6.10
2022-08-26T03:30:34.718Z,5.40
2022-08-26T03:33:03.676Z,5.80
2022-08-26T03:35:33.964Z,5.60
2022-08-26T03:38:03.452Z,5.20
2022-08-26T03:40:33.911Z,5.90
2022-08-26T03:43:04.618Z,5.20
2022-08-26T03:45:34.017Z,5.70
2022-08-26T03:48:04.531Z,5.10
2022-08-26T03:50:35.843Z,5.30
2022-08-26T03:53:04.509Z,5.80
2022-08-26T03:55:35.684Z,5.60
2022-08-26T03:58:03.904Z,5.60
2022-08-26T04:00:32.512Z,5.50
2022-08-26T04:03:02.754Z,5.60
2022-08-26T04:05:31.420Z,5.80
2022-08-26T04:08:00.072Z,5.00
2022-08-26T04:10:29.528Z,5.10
2022-08-26T04:12:59.552Z,5.40
2022-08-26T04:15:28.167Z,5.10
2022-08-26T04:17:57.245Z,5.10
2022-08-26T04:20:27.496Z,5.30
2022-08-26T04:22:56.511Z,4.90
2022-08-26T04:25:25.392Z,5.40
2022-08-26T04:27:53.988Z,5.40
2022-08-26T04:30:22.965Z,5.10
2022-08-26T04:32:52.576Z,5.00
2022-08-26T04:35:25.781Z,5.20
2022-08-26T04:37:54.497Z,5.10
2022-08-26T04:40:24.080Z,4.80
2022-08-26T04:42:54.958Z,4.60
2022-08-26T04:45:24.643Z,4.90
2022-08-26T04:47:56.498Z,5.80
2022-08-26T04:50:26.616Z,4.50
2022-08-26T04:52:55.498Z,4.50
2022-08-26T04:55:38.221Z,5.20
2022-08-26T04:58:11.049Z,3.90
2022-08-26T05:00:39.317Z,4.20
2022-08-26T05:03:10.567Z,4.40
2022-08-26T05:05:43.923Z,3.70
2022-08-26T05:08:14.972Z,3.90
2022-08-26T05:10:48.499Z,4.40
2022-08-26T05:13:20.623Z,3.40
2022-08-26T05:15:49.464Z,3.80
2022-08-26T05:18:21.369Z,4.20
2022-08-26T05:20:54.842Z,3.80
2022-08-26T05:23:24.783Z,3.70
2022-08-26T05:25:59.149Z,3.80
2022-08-26T05:28:29.998Z,4.20
2022-08-26T05:30:58.238Z,3.70
2022-08-26T05:33:26.687Z,4.20
2022-08-26T05:35:55.151Z,4.20
2022-08-26T05:38:23.752Z,3.90
2022-08-26T05:40:53.308Z,4.00
2022-08-26T05:43:21.652Z,3.80
2022-08-26T05:45:50.609Z,4.30
2022-08-26T05:48:22.704Z,3.90
2022-08-26T05:50:53.498Z,4.20
2022-08-26T05:53:25.926Z,3.80
2022-08-26T05:55:56.271Z,3.80
2022-08-26T05:58:27.182Z,4.20
2022-08-26T06:01:04.652Z,3.80
2022-08-26T06:03:36.077Z,4.10
2022-08-26T06:06:08.300Z,4.10
2022-08-26T06:08:37.790Z,4.70
2022-08-26T06:11:12.729Z,4.00
2022-08-26T06:13:47.228Z,4.10
2022-08-26T06:16:20.422Z,4.00
2022-08-26T06:18:50.709Z,3.80
2022-08-26T06:21:28.852Z,4.20
2022-08-26T06:24:19.533Z,4.00
2022-08-26T06:26:56.124Z,3.80
2022-08-26T06:29:28.001Z,3.50
2022-08-26T06:31:58.150Z,4.40
2022-08-26T06:34:30.638Z,3.60
2022-08-26T06:37:02.776Z,3.20
2022-08-26T06:39:32.113Z,4.30
2022-08-26T06:42:02.709Z,3.90
2022-08-26T06:44:35.121Z,4.10
2022-08-26T06:47:03.702Z,3.90
2022-08-26T06:49:31.897Z,4.30
2022-08-26T06:52:00.114Z,4.00
2022-08-26T06:54:31.815Z,4.40
2022-08-26T06:57:01.313Z,3.60
2022-08-26T06:59:31.347Z,3.20
2022-08-26T07:01:59.721Z,3.60
2022-08-26T07:04:28.916Z,3.50
2022-08-26T07:06:57.439Z,3.70
2022-08-26T07:09:30.396Z,3.80
2022-08-26T07:11:59.505Z,3.80
2022-08-26T07:14:27.933Z,3.40
2022-08-26T07:16:56.160Z,4.00
2022-08-26T07:19:30.146Z,4.50
2022-08-26T07:22:04.063Z,3.40
2022-08-26T07:24:35.867Z,3.40
2022-08-26T07:27:08.636Z,3.80
2022-08-26T07:29:39.583Z,3.70
2022-08-26T07:32:09.859Z,4.50
2022-08-26T07:34:39.410Z,4.20
2022-08-26T07:37:10.232Z,5.50
2022-08-26T07:39:41.624Z,4.50
2022-08-26T07:42:14.823Z,4.30
2022-08-26T07:44:45.315Z,3.90
2022-08-26T07:47:25.689Z,4.40
2022-08-26T07:49:57.911Z,4.30
2022-08-26T07:52:29.343Z,4.80
2022-08-26T07:55:00.964Z,5.00
2022-08-26T07:57:29.680Z,5.40
2022-08-26T07:59:59.061Z,5.00
2022-08-26T08:02:29.014Z,4.20
2022-08-26T08:04:58.546Z,4.20
2022-08-26T08:07:44.782Z,4.00
2022-08-26T08:10:22.548Z,4.00
2022-08-26T08:12:54.052Z,3.80
2022-08-26T08:15:27.903Z,3.50
2022-08-26T08:18:00.227Z,3.80
2022-08-26T08:20:30.069Z,4.10
2022-08-26T08:22:58.537Z,4.40
2022-08-26T08:25:27.112Z,4.10
2022-08-26T08:27:55.318Z,3.50
2022-08-26T08:30:25.346Z,3.70
2022-08-26T08:32:54.173Z,3.40
2022-08-26T08:35:24.150Z,3.60
2022-08-26T08:37:57.240Z,3.40
2022-08-26T08:40:27.166Z,4.20
2022-08-26T08:43:37.657Z,3.10
2022-08-26T08:46:12.971Z,4.20
2022-08-26T08:48:46.677Z,3.20
2022-08-26T08:51:48.426Z,3.20
2022-08-26T08:54:16.741Z,3.90
2022-08-26T08:56:55.532Z,3.30
2022-08-26T08:59:39.941Z,3.60
2022-08-26T09:02:47.974Z,4.00
2022-08-26T09:05:48.784Z,4.90
2022-08-26T09:08:27.457Z,3.00
2022-08-26T09:11:00.948Z,3.40
2022-08-26T09:16:00.058Z,2.70
2022-08-26T09:19:40.501Z,3.60
2022-08-26T09:22:09.924Z,3.80
2022-08-26T09:24:41.999Z,4.80
2022-08-26T09:27:50.763Z,2.70
2022-08-26T09:30:33.197Z,4.60
2022-08-26T09:33:11.287Z,3.20
2022-08-26T09:35:45.678Z,8.90
2022-08-26T09:38:34.269Z,4.30
2022-08-26T09:41:08.456Z,3.00
2022-08-26T09:43:37.625Z,3.10
2022-08-26T09:46:19.521Z,3.30
2022-08-26T09:48:48.516Z,3.00
2022-08-26T09:51:24.877Z,2.60
2022-08-26T09:53:57.752Z,3.10
2022-08-26T09:56:35.947Z,3.10
2022-08-26T09:59:11.126Z,2.70
2022-08-26T10:01:44.950Z,2.90
2022-08-26T10:04:26.727Z,2.80
2022-08-26T10:06:59.314Z,2.60
2022-08-26T10:09:29.919Z,2.50
2022-08-26T10:12:04.642Z,2.50
2022-08-26T10:14:39.932Z,2.60
2022-08-26T10:17:30.775Z,3.00
2022-08-26T10:20:23.379Z,2.60
2022-08-26T10:23:26.048Z,3.00
2022-08-26T10:26:07.783Z,2.80
2022-08-26T10:28:50.016Z,2.80
2022-08-26T10:31:52.018Z,2.20
2022-08-26T10:34:21.190Z,2.80
2022-08-26T10:37:15.741Z,2.70
2022-08-26T10:39:53.074Z,2.50
2022-08-26T10:42:42.924Z,2.70
2022-08-26T10:45:16.857Z,3.10
2022-08-26T10:47:59.916Z,2.40
2022-08-26T10:50:39.351Z,2.50
2022-08-26T10:53:27.011Z,2.40
2022-08-26T10:56:15.670Z,2.80
2022-08-26T10:59:10.224Z,2.80
2022-08-26T11:02:25.359Z,3.00
2022-08-26T11:05:06.573Z,2.50
2022-08-26T11:07:52.598Z,2.70
2022-08-26T11:10:23.051Z,3.00
2022-08-26T11:13:01.448Z,2.70
2022-08-26T11:15:29.680Z,3.40
2022-08-26T11:18:11.017Z,2.40
2022-08-26T11:20:41.916Z,2.40
2022-08-26T11:23:13.360Z,2.20
2022-08-26T11:25:57.138Z,2.70
2022-08-26T11:28:39.852Z,2.60
2022-08-26T11:31:38.753Z,2.90
2022-08-26T11:34:13.537Z,3.30
2022-08-26T11:36:47.826Z,3.00
2022-08-26T11:39:54.070Z,3.00
2022-08-26T11:42:45.980Z,2.90
2022-08-26T11:45:24.682Z,3.00
2022-08-26T11:47:55.024Z,3.20
2022-08-26T11:50:28.102Z,2.70
2022-08-26T11:53:06.330Z,2.90
2022-08-26T11:55:43.428Z,2.80
2022-08-26T11:58:15.042Z,3.10
2022-08-26T12:00:46.236Z,3.00
2022-08-26T12:03:36.081Z,2.30
2022-08-26T12:06:38.980Z,2.80
2022-08-26T12:09:26.432Z,2.40
2022-08-26T12:12:12.344Z,2.70
2022-08-26T12:14:41.817Z,2.60
2022-08-26T12:17:19.384Z,2.40
2022-08-26T12:19:50.731Z,2.70
2022-08-26T12:22:24.836Z,2.60
2022-08-26T12:24:59.995Z,3.40
2022-08-26T12:27:41.675Z,3.10
2022-08-26T12:30:17.999Z,2.50
2022-08-26T12:33:03.703Z,2.50
2022-08-26T12:35:56.431Z,2.70
2022-08-26T12:38:27.537Z,2.20
2022-08-26T12:40:57.081Z,3.00
2022-08-26T12:43:47.474Z,2.10
2022-08-26T12:46:27.701Z,2.40
2022-08-26T12:49:01.103Z,2.00
2022-08-26T12:51:32.961Z,2.10
2022-08-26T12:54:06.784Z,2.40
2022-08-26T12:56:39.521Z,2.60
2022-08-26T12:59:19.913Z,2.20
2022-08-26T13:01:49.510Z,2.40
2022-08-26T13:04:43.960Z,2.80
2022-08-26T13:07:26.437Z,2.20
2022-08-26T13:09:58.481Z,2.30
2022-08-26T13:12:32.817Z,2.00
2022-08-26T13:15:04.911Z,2.00
2022-08-26T13:17:35.954Z,2.40
2022-08-26T13:20:04.989Z,2.40
2022-08-26T13:22:34.283Z,2.70
2022-08-26T13:25:02.537Z,2.70
2022-08-26T13:27:30.745Z,2.10
2022-08-26T13:29:59.890Z,2.30
2022-08-26T13:32:28.982Z,2.40
2022-08-26T13:34:57.785Z,2.60
2022-08-26T13:37:34.114Z,2.50
2022-08-26T13:40:07.989Z,2.20
2022-08-26T13:42:36.268Z,2.20
2022-08-26T13:45:05.321Z,2.60
2022-08-26T13:47:33.558Z,2.10
2022-08-26T13:50:01.932Z,2.40
2022-08-26T13:52:31.206Z,2.30
2022-08-26T13:55:00.830Z,2.50
2022-08-26T13:57:30.484Z,2.30
2022-08-26T13:59:59.658Z,2.30
2022-08-26T14:02:28.695Z,2.40
2022-08-26T14:04:56.905Z,2.40
2022-08-26T14:07:25.167Z,2.20
2022-08-26T14:09:53.465Z,2.40
2022-08-26T14:12:21.708Z,2.30
2022-08-26T14:14:50.367Z,2.20
2022-08-26T14:17:24.515Z,2.00
2022-08-26T14:19:53.901Z,2.30
2022-08-26T14:22:22.652Z,2.00
2022-08-26T14:24:51.101Z,2.00
2022-08-26T14:27:19.450Z,1.90
2022-08-26T14:29:48.019Z,2.10
2022-08-26T14:32:26.193Z,2.00
2022-08-26T14:34:55.145Z,2.70
2022-08-26T14:37:24.067Z,2.00
2022-08-26T14:39:52.549Z,2.00
2022-08-26T14:42:31.350Z,1.60
2022-08-26T14:45:02.847Z,1.70
2022-08-26T14:47:31.138Z,1.90
2022-08-26T14:49:59.329Z,2.30
2022-08-26T14:52:27.815Z,2.50
2022-08-26T14:54:56.018Z,2.00
2022-08-26T14:57:24.227Z,1.90
2022-08-26T14:59:52.429Z,1.90
2022-08-26T15:02:33.809Z,2.30
2022-08-26T15:05:04.149Z,2.30
2022-08-26T15:07:32.718Z,1.90
2022-08-26T15:10:01.561Z,2.20
2022-08-26T15:12:29.833Z,2.10
2022-08-26T15:14:58.041Z,2.10
2022-08-26T15:17:26.674Z,2.10
2022-08-26T15:19:55.222Z,2.30
2022-08-26T15:22:23.883Z,2.00
2022-08-26T15:24:54.758Z,2.10
2022-08-26T15:27:22.989Z,1.90
2022-08-26T15:29:51.868Z,2.00
2022-08-26T15:32:20.813Z,2.30
2022-08-26T15:34:50.848Z,2.30
2022-08-26T15:37:19.326Z,2.10
2022-08-26T15:39:47.964Z,3.30
2022-08-26T15:42:16.174Z,2.60
2022-08-26T15:44:45.694Z,2.40
2022-08-26T15:47:13.870Z,2.20
2022-08-26T15:49:42.143Z,2.70
2022-08-26T15:52:10.816Z,3.10
2022-08-26T15:54:39.721Z,2.50
2022-08-26T15:57:11.448Z,1.90
2022-08-26T15:59:40.799Z,2.10
2022-08-26T16:02:09.679Z,2.00
2022-08-26T16:04:38.045Z,2.80
2022-08-26T16:07:06.270Z,2.50
2022-08-26T16:09:34.676Z,2.10
2022-08-26T16:12:03.375Z,2.10
2022-08-26T16:14:31.683Z,2.50
2022-08-26T16:16:59.886Z,2.00
2022-08-26T16:19:28.065Z,2.20
2022-08-26T16:21:56.287Z,2.70
2022-08-26T16:24:29.724Z,3.30
2022-08-26T16:26:58.921Z,3.50
2022-08-26T16:29:27.514Z,3.40
2022-08-26T16:31:55.798Z,2.60
2022-08-26T16:34:24.577Z,2.60
2022-08-26T16:36:53.072Z,2.40
2022-08-26T16:39:21.428Z,2.50
2022-08-26T16:41:49.581Z,2.20
2022-08-26T16:44:18.225Z,2.60
2022-08-26T16:46:46.551Z,3.00
2022-08-26T16:49:15.226Z,3.10
2022-08-26T16:51:43.662Z,2.90
2022-08-26T16:54:11.880Z,3.30
2022-08-26T16:56:40.365Z,3.50
2022-08-26T16:59:11.615Z,3.40
2022-08-26T17:01:40.195Z,3.50
2022-08-26T17:04:08.768Z,2.70
2022-08-26T17:06:37.065Z,3.30
2022-08-26T17:09:09.003Z,3.40
2022-08-26T17:11:37.652Z,3.90
2022-08-26T17:14:06.600Z,3.80
2022-08-26T17:16:34.908Z,3.80
2022-08-26T17:19:05.005Z,3.90
2022-08-26T17:21:36.611Z,4.00
2022-08-26T17:24:06.911Z,3.60
2022-08-26T17:26:37.123Z,4.00
2022-08-26T17:29:07.426Z,3.20
2022-08-26T17:31:35.696Z,3.20
2022-08-26T17:34:05.193Z,3.50
2022-08-26T17:36:33.543Z,3.60
2022-08-26T17:39:02.105Z,3.60
2022-08-26T17:41:30.342Z,3.70
2022-08-26T17:43:58.607Z,3.60
2022-08-26T17:46:26.974Z,4.10
2022-08-26T17:48:55.270Z,4.50
2022-08-26T17:51:24.015Z,3.70
2022-08-26T17:53:52.555Z,4.30
2022-08-26T17:56:25.551Z,4.10
2022-08-26T17:58:57.731Z,4.10
2022-08-26T18:01:31.143Z,3.90
2022-08-26T18:04:00.876Z,3.20
2022-08-26T18:06:30.845Z,3.80
2022-08-26T18:09:00.746Z,4.10
2022-08-26T18:11:32.151Z,3.90
2022-08-26T18:14:00.593Z,3.90
2022-08-26T18:16:31.740Z,3.50
2022-08-26T18:19:01.135Z,3.80
2022-08-26T18:21:29.475Z,3.80
2022-08-26T18:23:57.702Z,3.80
2022-08-26T18:26:31.398Z,4.40
2022-08-26T18:29:00.900Z,3.70
2022-08-26T18:31:30.490Z,4.10
2022-08-26T18:34:01.223Z,4.30
2022-08-26T18:36:36.589Z,4.60
2022-08-26T18:39:08.357Z,4.50
2022-08-26T18:41:46.232Z,4.20
2022-08-26T18:44:17.981Z,4.50
2022-08-26T18:46:47.148Z,4.40
2022-08-26T18:49:18.150Z,4.10
2022-08-26T18:51:47.869Z,4.30
2022-08-26T18:54:17.272Z,4.60
2022-08-26T18:56:45.938Z,4.60
2022-08-26T18:59:14.882Z,4.10
2022-08-26T19:01:45.334Z,3.90
2022-08-26T19:04:15.464Z,4.00
2022-08-26T19:06:48.572Z,4.30
2022-08-26T19:09:19.073Z,4.80
2022-08-26T19:11:50.085Z,4.20
2022-08-26T19:14:19.085Z,4.10
2022-08-26T19:16:49.996Z,4.40
2022-08-26T19:19:23.904Z,4.70
2022-08-26T19:21:52.792Z,4.40
2022-08-26T19:24:23.229Z,4.50
2022-08-26T19:26:59.744Z,4.00
2022-08-26T19:29:34.932Z,4.60
2022-08-26T19:32:04.655Z,4.00
2022-08-26T19:34:34.188Z,4.60
2022-08-26T19:37:02.555Z,3.90
2022-08-26T19:39:30.859Z,5.20
2022-08-26T19:42:00.419Z,4.00
2022-08-26T19:44:47.279Z,4.30
2022-08-26T19:47:15.754Z,4.70
2022-08-26T19:49:44.823Z,4.30
2022-08-26T19:52:14.198Z,4.20
2022-08-26T19:54:42.511Z,4.40
2022-08-26T19:57:11.249Z,5.40
2022-08-26T19:59:40.377Z,4.40
2022-08-26T20:02:11.083Z,4.30
2022-08-26T20:04:41.723Z,4.10
2022-08-26T20:07:12.926Z,4.60
2022-08-26T20:09:43.601Z,4.00
2022-08-26T20:12:12.478Z,4.40
2022-08-26T20:14:40.911Z,4.20
2022-08-26T20:17:09.525Z,4.60
2022-08-26T20:19:56.461Z,4.40
2022-08-26T20:22:25.780Z,4.20
2022-08-26T20:24:54.042Z,4.80
2022-08-26T20:27:27.684Z,4.60
2022-08-26T20:30:10.109Z,4.30
2022-08-26T20:32:39.996Z,4.60
2022-08-26T20:35:12.404Z,4.20
2022-08-26T20:37:41.535Z,4.10
2022-08-26T20:40:13.352Z,3.80
2022-08-26T20:42:41.686Z,4.20
2022-08-26T20:45:10.777Z,4.30
2022-08-26T20:47:38.975Z,3.70
2022-08-26T20:50:08.680Z,4.10
2022-08-26T20:52:37.022Z,4.30
2022-08-26T20:55:06.001Z,4.20
2022-08-26T20:57:34.412Z,3.90
2022-08-26T21:00:03.722Z,4.70
2022-08-26T21:02:31.942Z,4.30
2022-08-26T21:05:05.302Z,4.20
2022-08-26T21:07:34.809Z,3.90
2022-08-26T21:10:05.503Z,3.80
2022-08-26T21:12:38.421Z,4.20
2022-08-26T21:15:16.129Z,3.50
2022-08-26T21:17:47.700Z,3.20
2022-08-26T21:20:30.493Z,3.70
2022-08-26T21:23:04.079Z,3.50
2022-08-26T21:25:47.419Z,4.30
2022-08-26T21:28:18.627Z,4.60
2022-08-26T21:30:47.900Z,4.20
2022-08-26T21:33:16.066Z,3.70
2022-08-26T21:35:54.416Z,4.10
2022-08-26T21:38:32.663Z,3.80
2022-08-26T21:41:09.650Z,3.50
2022-08-26T21:43:43.645Z,4.00
2022-08-26T21:46:21.979Z,3.50
2022-08-26T21:49:02.993Z,3.60
2022-08-26T21:51:35.105Z,4.00
2022-08-26T21:54:10.761Z,4.20
2022-08-26T21:56:46.164Z,4.60
2022-08-26T21:59:17.536Z,3.90
2022-08-26T22:01:46.352Z,3.70
2022-08-26T22:04:16.060Z,3.90
2022-08-26T22:06:48.028Z,3.50
2022-08-26T22:09:21.611Z,3.60
2022-08-26T22:11:50.932Z,3.90
2022-08-26T22:14:30.366Z,3.40
2022-08-26T22:17:00.420Z,3.70
2022-08-26T22:19:31.565Z,3.30
2022-08-26T22:22:03.635Z,3.40
2022-08-26T22:24:31.897Z,3.30
2022-08-26T22:27:00.193Z,3.50
2022-08-26T22:29:28.528Z,3.60
2022-08-26T22:31:57.342Z,3.70
2022-08-26T22:34:25.752Z,3.40
2022-08-26T22:36:54.075Z,3.40
2022-08-26T22:39:26.214Z,3.80
2022-08-26T22:41:55.267Z,3.60
2022-08-26T22:44:24.025Z,3.40
2022-08-26T22:46:57.065Z,4.00
2022-08-26T22:49:32.416Z,4.50
2022-08-26T22:52:14.562Z,3.70
2022-08-26T22:55:04.848Z,4.30
2022-08-26T22:57:40.190Z,4.80
2022-08-26T23:00:16.474Z,3.90
2022-08-26T23:02:54.204Z,4.90
2022-08-26T23:05:44.658Z,3.70
2022-08-26T23:08:22.960Z,3.60
2022-08-26T23:11:05.137Z,3.70
2022-08-26T23:13:40.537Z,3.80
2022-08-26T23:16:12.102Z,3.70
2022-08-26T23:18:43.767Z,4.20
2022-08-26T23:21:20.465Z,3.70
2022-08-26T23:23:58.093Z,3.20
2022-08-26T23:26:45.674Z,3.90
2022-08-26T23:29:26.043Z,3.80
2022-08-26T23:31:59.081Z,4.20
2022-08-26T23:34:50.092Z,4.20
2022-08-26T23:37:55.629Z,4.20
2022-08-26T23:40:32.739Z,3.90
2022-08-26T23:43:06.804Z,4.30
2022-08-26T23:45:35.951Z,4.00
2022-08-26T23:48:04.766Z,4.30
2022-08-26T23:50:51.478Z,4.40
2022-08-26T23:53:22.459Z,4.30
2022-08-26T23:55:53.146Z,4.80
2022-08-26T23:58:22.179Z,4.40
